sensor_id;sensor_type;location;lat;lon;timestamp;P1;durP1;ratioP1;P2;durP2;ratioP2
2618;SDS011;1319;52.346;13.096;2024-02-26T00:00:25;15.27;;;9.03;;
2618;SDS011;1319;52.346;13.096;2024-02-26T00:02:50;11.77;;;8.10;;
2618;SDS011;1319;52.346;13.096;2024-02-26T00:05:15;11.90;;;7.90;;
2618;SDS011;1319;52.346;13.096;2024-02-26T00:07:41;10.30;;;7.63;;
2618;SDS011;1319;52.346;13.096;2024-02-26T00:10:06;11.50;;;7.90;;
2618;SDS011;1319;52.346;13.096;2024-02-26T00:12:32;11.70;;;7.47;;
2618;SDS011;1319;52.346;13.096;2024-02-26T00:14:57;13.37;;;7.90;;
2618;SDS011;1319;52.346;13.096;2024-02-26T00:17:23;12.53;;;7.00;;
2618;SDS011;1319;52.346;13.096;2024-02-26T00:19:49;9.37;;;7.40;;
2618;SDS011;1319;52.346;13.096;2024-02-26T00:22:14;12.50;;;7.50;;
2618;SDS011;1319;52.346;13.096;2024-02-26T00:24:40;11.93;;;7.73;;
2618;SDS011;1319;52.346;13.096;2024-02-26T00:27:05;10.33;;;7.20;;
2618;SDS011;1319;52.346;13.096;2024-02-26T00:29:30;10.70;;;7.83;;
2618;SDS011;1319;52.346;13.096;2024-02-26T00:31:55;11.90;;;7.47;;
2618;SDS011;1319;52.346;13.096;2024-02-26T00:34:21;10.33;;;7.23;;
2618;SDS011;1319;52.346;13.096;2024-02-26T00:36:46;10.27;;;7.13;;
2618;SDS011;1319;52.346;13.096;2024-02-26T00:39:11;11.83;;;7.73;;
2618;SDS011;1319;52.346;13.096;2024-02-26T00:41:40;10.93;;;7.70;;
2618;SDS011;1319;52.346;13.096;2024-02-26T00:44:05;9.67;;;7.30;;
2618;SDS011;1319;52.346;13.096;2024-02-26T00:46:32;13.67;;;8.67;;
2618;SDS011;1319;52.346;13.096;2024-02-26T00:48:57;13.07;;;8.60;;
2618;SDS011;1319;52.346;13.096;2024-02-26T00:51:23;15.03;;;8.83;;
2618;SDS011;1319;52.346;13.096;2024-02-26T00:53:48;13.07;;;8.97;;
2618;SDS011;1319;52.346;13.096;2024-02-26T00:56:13;12.60;;;8.33;;
2618;SDS011;1319;52.346;13.096;2024-02-26T00:58:38;15.80;;;9.17;;
2618;SDS011;1319;52.346;13.096;2024-02-26T01:01:04;15.10;;;8.60;;
2618;SDS011;1319;52.346;13.096;2024-02-26T01:03:29;15.53;;;7.80;;
2618;SDS011;1319;52.346;13.096;2024-02-26T01:05:55;11.10;;;7.43;;
2618;SDS011;1319;52.346;13.096;2024-02-26T01:08:20;10.67;;;6.97;;
2618;SDS011;1319;52.346;13.096;2024-02-26T01:10:46;10.97;;;7.03;;
2618;SDS011;1319;52.346;13.096;2024-02-26T01:13:11;13.57;;;7.57;;
2618;SDS011;1319;52.346;13.096;2024-02-26T01:15:36;12.73;;;7.60;;
2618;SDS011;1319;52.346;13.096;2024-02-26T01:18:01;9.40;;;7.00;;
2618;SDS011;1319;52.346;13.096;2024-02-26T01:20:27;11.17;;;7.60;;
2618;SDS011;1319;52.346;13.096;2024-02-26T01:22:52;11.13;;;6.80;;
2618;SDS011;1319;52.346;13.096;2024-02-26T01:25:17;8.93;;;6.20;;
2618;SDS011;1319;52.346;13.096;2024-02-26T01:27:43;9.83;;;6.17;;
2618;SDS011;1319;52.346;13.096;2024-02-26T01:30:10;7.60;;;5.50;;
2618;SDS011;1319;52.346;13.096;2024-02-26T01:32:35;10.40;;;6.47;;
2618;SDS011;1319;52.346;13.096;2024-02-26T01:35:01;7.40;;;5.77;;
2618;SDS011;1319;52.346;13.096;2024-02-26T01:37:28;9.40;;;5.97;;
2618;SDS011;1319;52.346;13.096;2024-02-26T01:39:54;6.83;;;5.10;;
2618;SDS011;1319;52.346;13.096;2024-02-26T01:42:20;7.00;;;5.43;;
2618;SDS011;1319;52.346;13.096;2024-02-26T01:44:45;7.37;;;5.40;;
2618;SDS011;1319;52.346;13.096;2024-02-26T01:47:11;8.23;;;5.73;;
2618;SDS011;1319;52.346;13.096;2024-02-26T01:49:36;5.93;;;4.97;;
2618;SDS011;1319;52.346;13.096;2024-02-26T01:52:02;10.30;;;5.63;;
2618;SDS011;1319;52.346;13.096;2024-02-26T01:54:27;7.87;;;4.90;;
2618;SDS011;1319;52.346;13.096;2024-02-26T01:56:53;8.40;;;5.20;;
2618;SDS011;1319;52.346;13.096;2024-02-26T01:59:19;8.53;;;5.17;;
2618;SDS011;1319;52.346;13.096;2024-02-26T02:01:45;6.80;;;5.20;;
2618;SDS011;1319;52.346;13.096;2024-02-26T02:04:14;8.83;;;5.93;;
2618;SDS011;1319;52.346;13.096;2024-02-26T02:06:41;7.53;;;5.73;;
2618;SDS011;1319;52.346;13.096;2024-02-26T02:09:08;8.50;;;5.87;;
2618;SDS011;1319;52.346;13.096;2024-02-26T02:11:33;9.07;;;5.87;;
2618;SDS011;1319;52.346;13.096;2024-02-26T02:13:59;8.27;;;5.73;;
2618;SDS011;1319;52.346;13.096;2024-02-26T02:16:24;8.23;;;5.57;;
2618;SDS011;1319;52.346;13.096;2024-02-26T02:18:51;8.40;;;5.77;;
2618;SDS011;1319;52.346;13.096;2024-02-26T02:21:16;7.40;;;5.20;;
2618;SDS011;1319;52.346;13.096;2024-02-26T02:23:41;7.63;;;5.03;;
2618;SDS011;1319;52.346;13.096;2024-02-26T02:26:11;7.37;;;5.33;;
2618;SDS011;1319;52.346;13.096;2024-02-26T02:28:36;8.13;;;5.63;;
2618;SDS011;1319;52.346;13.096;2024-02-26T02:31:01;6.23;;;5.03;;
2618;SDS011;1319;52.346;13.096;2024-02-26T02:33:27;8.03;;;5.20;;
2618;SDS011;1319;52.346;13.096;2024-02-26T02:35:52;7.33;;;5.17;;
2618;SDS011;1319;52.346;13.096;2024-02-26T02:38:19;7.37;;;5.40;;
2618;SDS011;1319;52.346;13.096;2024-02-26T02:40:44;8.17;;;5.63;;
2618;SDS011;1319;52.346;13.096;2024-02-26T02:43:09;6.87;;;5.50;;
2618;SDS011;1319;52.346;13.096;2024-02-26T02:45:34;6.83;;;5.33;;
2618;SDS011;1319;52.346;13.096;2024-02-26T02:48:00;6.67;;;5.10;;
2618;SDS011;1319;52.346;13.096;2024-02-26T02:50:25;8.13;;;5.63;;
2618;SDS011;1319;52.346;13.096;2024-02-26T02:52:50;7.37;;;5.83;;
2618;SDS011;1319;52.346;13.096;2024-02-26T02:55:17;9.63;;;5.83;;
2618;SDS011;1319;52.346;13.096;2024-02-26T02:57:43;8.03;;;5.53;;
2618;SDS011;1319;52.346;13.096;2024-02-26T03:00:09;9.77;;;5.80;;
2618;SDS011;1319;52.346;13.096;2024-02-26T03:02:35;6.90;;;5.20;;
2618;SDS011;1319;52.346;13.096;2024-02-26T03:05:03;10.03;;;5.93;;
2618;SDS011;1319;52.346;13.096;2024-02-26T03:07:29;11.47;;;4.80;;
2618;SDS011;1319;52.346;13.096;2024-02-26T03:09:54;7.97;;;6.07;;
2618;SDS011;1319;52.346;13.096;2024-02-26T03:12:20;7.40;;;5.63;;
2618;SDS011;1319;52.346;13.096;2024-02-26T03:14:46;7.20;;;5.67;;
2618;SDS011;1319;52.346;13.096;2024-02-26T03:17:12;9.73;;;6.13;;
2618;SDS011;1319;52.346;13.096;2024-02-26T03:19:38;9.67;;;6.23;;
2618;SDS011;1319;52.346;13.096;2024-02-26T03:22:03;11.40;;;7.37;;
2618;SDS011;1319;52.346;13.096;2024-02-26T03:24:28;9.73;;;6.63;;
2618;SDS011;1319;52.346;13.096;2024-02-26T03:26:53;11.13;;;6.43;;
2618;SDS011;1319;52.346;13.096;2024-02-26T03:29:19;11.93;;;7.20;;
2618;SDS011;1319;52.346;13.096;2024-02-26T03:31:44;10.93;;;6.90;;
2618;SDS011;1319;52.346;13.096;2024-02-26T03:34:09;13.00;;;7.37;;
2618;SDS011;1319;52.346;13.096;2024-02-26T03:36:38;13.93;;;7.63;;
2618;SDS011;1319;52.346;13.096;2024-02-26T03:39:03;11.73;;;7.73;;
2618;SDS011;1319;52.346;13.096;2024-02-26T03:41:32;14.47;;;8.03;;
2618;SDS011;1319;52.346;13.096;2024-02-26T03:43:57;14.23;;;8.43;;
2618;SDS011;1319;52.346;13.096;2024-02-26T03:46:23;11.07;;;7.47;;
2618;SDS011;1319;52.346;13.096;2024-02-26T03:48:48;12.63;;;7.83;;
2618;SDS011;1319;52.346;13.096;2024-02-26T03:51:13;12.80;;;8.03;;
2618;SDS011;1319;52.346;13.096;2024-02-26T03:53:38;15.53;;;8.77;;
2618;SDS011;1319;52.346;13.096;2024-02-26T03:56:04;14.13;;;8.93;;
2618;SDS011;1319;52.346;13.096;2024-02-26T03:58:29;13.70;;;8.30;;
2618;SDS011;1319;52.346;13.096;2024-02-26T04:00:55;13.97;;;7.80;;
2618;SDS011;1319;52.346;13.096;2024-02-26T04:03:21;13.60;;;8.07;;
2618;SDS011;1319;52.346;13.096;2024-02-26T04:05:46;14.40;;;8.83;;
2618;SDS011;1319;52.346;13.096;2024-02-26T04:08:11;12.93;;;8.03;;
2618;SDS011;1319;52.346;13.096;2024-02-26T04:10:36;14.37;;;8.50;;
2618;SDS011;1319;52.346;13.096;2024-02-26T04:13:06;13.43;;;8.20;;
2618;SDS011;1319;52.346;13.096;2024-02-26T04:15:31;12.43;;;8.00;;
2618;SDS011;1319;52.346;13.096;2024-02-26T04:17:57;16.33;;;8.80;;
2618;SDS011;1319;52.346;13.096;2024-02-26T04:20:22;12.37;;;8.20;;
2618;SDS011;1319;52.346;13.096;2024-02-26T04:22:47;13.43;;;8.20;;
2618;SDS011;1319;52.346;13.096;2024-02-26T04:25:13;14.33;;;8.53;;
2618;SDS011;1319;52.346;13.096;2024-02-26T04:27:39;14.70;;;8.43;;
2618;SDS011;1319;52.346;13.096;2024-02-26T04:30:05;13.13;;;7.57;;
2618;SDS011;1319;52.346;13.096;2024-02-26T04:32:31;12.83;;;8.33;;
2618;SDS011;1319;52.346;13.096;2024-02-26T04:34:56;12.20;;;8.03;;
2618;SDS011;1319;52.346;13.096;2024-02-26T04:37:22;12.47;;;7.67;;
2618;SDS011;1319;52.346;13.096;2024-02-26T04:39:47;12.67;;;8.40;;
2618;SDS011;1319;52.346;13.096;2024-02-26T04:42:12;12.63;;;8.37;;
2618;SDS011;1319;52.346;13.096;2024-02-26T04:44:37;18.50;;;8.60;;
2618;SDS011;1319;52.346;13.096;2024-02-26T04:47:03;14.57;;;8.33;;
2618;SDS011;1319;52.346;13.096;2024-02-26T04:49:28;18.93;;;8.97;;
2618;SDS011;1319;52.346;13.096;2024-02-26T04:51:53;14.43;;;8.63;;
2618;SDS011;1319;52.346;13.096;2024-02-26T04:54:19;13.17;;;8.13;;
2618;SDS011;1319;52.346;13.096;2024-02-26T04:56:44;14.33;;;8.00;;
2618;SDS011;1319;52.346;13.096;2024-02-26T04:59:09;13.30;;;9.13;;
2618;SDS011;1319;52.346;13.096;2024-02-26T05:01:34;13.23;;;8.40;;
2618;SDS011;1319;52.346;13.096;2024-02-26T05:04:01;15.17;;;8.93;;
2618;SDS011;1319;52.346;13.096;2024-02-26T05:06:26;15.60;;;9.00;;
2618;SDS011;1319;52.346;13.096;2024-02-26T05:08:51;14.10;;;8.77;;
2618;SDS011;1319;52.346;13.096;2024-02-26T05:11:17;14.60;;;8.90;;
2618;SDS011;1319;52.346;13.096;2024-02-26T05:13:43;15.20;;;8.93;;
2618;SDS011;1319;52.346;13.096;2024-02-26T05:16:10;15.50;;;9.90;;
2618;SDS011;1319;52.346;13.096;2024-02-26T05:18:36;15.10;;;9.67;;
2618;SDS011;1319;52.346;13.096;2024-02-26T05:21:01;16.30;;;10.30;;
2618;SDS011;1319;52.346;13.096;2024-02-26T05:23:28;17.40;;;9.57;;
2618;SDS011;1319;52.346;13.096;2024-02-26T05:25:53;15.70;;;9.90;;
2618;SDS011;1319;52.346;13.096;2024-02-26T05:28:18;17.03;;;10.33;;
2618;SDS011;1319;52.346;13.096;2024-02-26T05:30:46;19.40;;;10.47;;
2618;SDS011;1319;52.346;13.096;2024-02-26T05:33:11;17.40;;;10.17;;
2618;SDS011;1319;52.346;13.096;2024-02-26T05:35:36;18.30;;;10.57;;
2618;SDS011;1319;52.346;13.096;2024-02-26T05:38:02;18.97;;;11.13;;
2618;SDS011;1319;52.346;13.096;2024-02-26T05:40:27;19.43;;;11.43;;
2618;SDS011;1319;52.346;13.096;2024-02-26T05:42:52;17.80;;;10.43;;
2618;SDS011;1319;52.346;13.096;2024-02-26T05:45:17;20.63;;;10.83;;
2618;SDS011;1319;52.346;13.096;2024-02-26T05:47:43;21.87;;;11.80;;
2618;SDS011;1319;52.346;13.096;2024-02-26T05:50:09;22.53;;;11.60;;
2618;SDS011;1319;52.346;13.096;2024-02-26T05:52:36;20.83;;;11.57;;
2618;SDS011;1319;52.346;13.096;2024-02-26T05:55:01;23.47;;;12.10;;
2618;SDS011;1319;52.346;13.096;2024-02-26T05:57:27;19.07;;;11.60;;
2618;SDS011;1319;52.346;13.096;2024-02-26T05:59:52;20.87;;;12.33;;
2618;SDS011;1319;52.346;13.096;2024-02-26T06:02:17;18.47;;;10.93;;
2618;SDS011;1319;52.346;13.096;2024-02-26T06:04:44;21.37;;;11.93;;
2618;SDS011;1319;52.346;13.096;2024-02-26T06:07:09;21.77;;;12.20;;
2618;SDS011;1319;52.346;13.096;2024-02-26T06:09:36;23.00;;;12.00;;
2618;SDS011;1319;52.346;13.096;2024-02-26T06:12:01;23.20;;;12.00;;
2618;SDS011;1319;52.346;13.096;2024-02-26T06:14:26;20.93;;;12.00;;
2618;SDS011;1319;52.346;13.096;2024-02-26T06:16:51;26.70;;;12.00;;
2618;SDS011;1319;52.346;13.096;2024-02-26T06:19:17;21.40;;;12.57;;
2618;SDS011;1319;52.346;13.096;2024-02-26T06:21:42;22.57;;;11.07;;
2618;SDS011;1319;52.346;13.096;2024-02-26T06:24:07;16.53;;;10.53;;
2618;SDS011;1319;52.346;13.096;2024-02-26T06:26:32;19.93;;;11.30;;
2618;SDS011;1319;52.346;13.096;2024-02-26T06:28:58;17.77;;;11.33;;
2618;SDS011;1319;52.346;13.096;2024-02-26T06:31:24;18.73;;;11.63;;
2618;SDS011;1319;52.346;13.096;2024-02-26T06:33:49;18.23;;;11.33;;
2618;SDS011;1319;52.346;13.096;2024-02-26T06:36:15;19.90;;;11.60;;
2618;SDS011;1319;52.346;13.096;2024-02-26T06:38:40;22.57;;;12.13;;
2618;SDS011;1319;52.346;13.096;2024-02-26T06:41:06;22.17;;;12.83;;
2618;SDS011;1319;52.346;13.096;2024-02-26T06:43:31;21.43;;;12.00;;
2618;SDS011;1319;52.346;13.096;2024-02-26T06:45:56;29.87;;;13.10;;
2618;SDS011;1319;52.346;13.096;2024-02-26T06:48:23;23.23;;;13.33;;
2618;SDS011;1319;52.346;13.096;2024-02-26T06:50:48;25.27;;;12.37;;
2618;SDS011;1319;52.346;13.096;2024-02-26T06:53:13;21.13;;;12.63;;
2618;SDS011;1319;52.346;13.096;2024-02-26T06:55:38;21.00;;;12.47;;
2618;SDS011;1319;52.346;13.096;2024-02-26T06:58:05;24.33;;;12.90;;
2618;SDS011;1319;52.346;13.096;2024-02-26T07:00:30;24.73;;;13.23;;
2618;SDS011;1319;52.346;13.096;2024-02-26T07:02:56;25.47;;;13.60;;
2618;SDS011;1319;52.346;13.096;2024-02-26T07:05:21;26.77;;;13.20;;
2618;SDS011;1319;52.346;13.096;2024-02-26T07:07:46;24.47;;;12.77;;
2618;SDS011;1319;52.346;13.096;2024-02-26T07:10:11;23.27;;;13.77;;
2618;SDS011;1319;52.346;13.096;2024-02-26T07:12:37;20.97;;;13.03;;
2618;SDS011;1319;52.346;13.096;2024-02-26T07:15:02;22.67;;;13.40;;
2618;SDS011;1319;52.346;13.096;2024-02-26T07:17:28;27.50;;;14.33;;
2618;SDS011;1319;52.346;13.096;2024-02-26T07:19:54;27.40;;;14.57;;
2618;SDS011;1319;52.346;13.096;2024-02-26T07:22:19;30.30;;;14.27;;
2618;SDS011;1319;52.346;13.096;2024-02-26T07:24:44;24.17;;;13.80;;
2618;SDS011;1319;52.346;13.096;2024-02-26T07:27:09;22.40;;;13.40;;
2618;SDS011;1319;52.346;13.096;2024-02-26T07:29:35;18.63;;;12.07;;
2618;SDS011;1319;52.346;13.096;2024-02-26T07:32:00;19.63;;;12.57;;
2618;SDS011;1319;52.346;13.096;2024-02-26T07:34:25;25.13;;;13.53;;
2618;SDS011;1319;52.346;13.096;2024-02-26T07:36:54;20.83;;;12.87;;
2618;SDS011;1319;52.346;13.096;2024-02-26T07:39:20;19.43;;;12.60;;
2618;SDS011;1319;52.346;13.096;2024-02-26T07:41:45;26.90;;;13.20;;
2618;SDS011;1319;52.346;13.096;2024-02-26T07:44:13;22.63;;;13.73;;
2618;SDS011;1319;52.346;13.096;2024-02-26T07:46:38;20.83;;;12.60;;
2618;SDS011;1319;52.346;13.096;2024-02-26T07:49:03;22.33;;;13.43;;
2618;SDS011;1319;52.346;13.096;2024-02-26T07:51:29;21.70;;;13.47;;
2618;SDS011;1319;52.346;13.096;2024-02-26T07:53:54;26.57;;;15.67;;
2618;SDS011;1319;52.346;13.096;2024-02-26T07:56:19;27.30;;;16.30;;
2618;SDS011;1319;52.346;13.096;2024-02-26T07:58:44;27.53;;;15.63;;
2618;SDS011;1319;52.346;13.096;2024-02-26T08:01:12;25.50;;;15.23;;
2618;SDS011;1319;52.346;13.096;2024-02-26T08:03:37;26.83;;;16.03;;
2618;SDS011;1319;52.346;13.096;2024-02-26T08:06:03;32.97;;;18.23;;
2618;SDS011;1319;52.346;13.096;2024-02-26T08:08:28;41.50;;;22.07;;
2618;SDS011;1319;52.346;13.096;2024-02-26T08:10:53;38.40;;;21.30;;
2618;SDS011;1319;52.346;13.096;2024-02-26T08:13:18;42.03;;;22.63;;
2618;SDS011;1319;52.346;13.096;2024-02-26T08:15:44;37.53;;;21.97;;
2618;SDS011;1319;52.346;13.096;2024-02-26T08:18:09;37.87;;;22.20;;
2618;SDS011;1319;52.346;13.096;2024-02-26T08:20:34;36.20;;;20.93;;
2618;SDS011;1319;52.346;13.096;2024-02-26T08:22:59;39.87;;;22.00;;
2618;SDS011;1319;52.346;13.096;2024-02-26T08:25:25;38.53;;;22.03;;
2618;SDS011;1319;52.346;13.096;2024-02-26T08:27:50;39.53;;;22.40;;
2618;SDS011;1319;52.346;13.096;2024-02-26T08:30:16;40.93;;;21.50;;
2618;SDS011;1319;52.346;13.096;2024-02-26T08:32:45;35.43;;;20.80;;
2618;SDS011;1319;52.346;13.096;2024-02-26T08:35:10;38.90;;;21.03;;
2618;SDS011;1319;52.346;13.096;2024-02-26T08:37:36;40.10;;;20.33;;
2618;SDS011;1319;52.346;13.096;2024-02-26T08:40:01;33.87;;;19.50;;
2618;SDS011;1319;52.346;13.096;2024-02-26T08:42:28;35.33;;;19.27;;
2618;SDS011;1319;52.346;13.096;2024-02-26T08:44:54;34.27;;;18.53;;
2618;SDS011;1319;52.346;13.096;2024-02-26T08:47:19;29.17;;;18.17;;
2618;SDS011;1319;52.346;13.096;2024-02-26T08:49:45;29.23;;;17.07;;
2618;SDS011;1319;52.346;13.096;2024-02-26T08:52:10;31.03;;;16.97;;
2618;SDS011;1319;52.346;13.096;2024-02-26T08:54:36;29.00;;;17.90;;
2618;SDS011;1319;52.346;13.096;2024-02-26T08:57:01;27.03;;;16.63;;
2618;SDS011;1319;52.346;13.096;2024-02-26T08:59:27;29.93;;;18.10;;
2618;SDS011;1319;52.346;13.096;2024-02-26T09:01:53;29.83;;;17.53;;
2618;SDS011;1319;52.346;13.096;2024-02-26T09:04:18;26.93;;;16.70;;
2618;SDS011;1319;52.346;13.096;2024-02-26T09:06:43;25.87;;;16.83;;
2618;SDS011;1319;52.346;13.096;2024-02-26T09:09:08;29.80;;;17.20;;
2618;SDS011;1319;52.346;13.096;2024-02-26T09:11:33;27.10;;;16.93;;
2618;SDS011;1319;52.346;13.096;2024-02-26T09:13:59;29.97;;;17.43;;
2618;SDS011;1319;52.346;13.096;2024-02-26T09:16:24;25.43;;;16.07;;
2618;SDS011;1319;52.346;13.096;2024-02-26T09:18:49;31.17;;;16.70;;
2618;SDS011;1319;52.346;13.096;2024-02-26T09:21:14;26.60;;;16.30;;
2618;SDS011;1319;52.346;13.096;2024-02-26T09:23:41;23.67;;;15.83;;
2618;SDS011;1319;52.346;13.096;2024-02-26T09:26:06;24.13;;;15.60;;
2618;SDS011;1319;52.346;13.096;2024-02-26T09:28:31;22.53;;;15.00;;
2618;SDS011;1319;52.346;13.096;2024-02-26T09:31:02;24.63;;;15.77;;
2618;SDS011;1319;52.346;13.096;2024-02-26T09:33:27;24.60;;;15.63;;
2618;SDS011;1319;52.346;13.096;2024-02-26T09:35:52;23.50;;;14.90;;
2618;SDS011;1319;52.346;13.096;2024-02-26T09:38:17;21.63;;;13.87;;
2618;SDS011;1319;52.346;13.096;2024-02-26T09:40:43;24.03;;;14.67;;
2618;SDS011;1319;52.346;13.096;2024-02-26T09:43:08;22.87;;;14.17;;
2618;SDS011;1319;52.346;13.096;2024-02-26T09:45:35;21.90;;;13.83;;
2618;SDS011;1319;52.346;13.096;2024-02-26T09:48:00;21.10;;;14.17;;
2618;SDS011;1319;52.346;13.096;2024-02-26T09:50:27;21.93;;;12.97;;
2618;SDS011;1319;52.346;13.096;2024-02-26T09:52:52;19.20;;;13.00;;
2618;SDS011;1319;52.346;13.096;2024-02-26T09:55:19;23.80;;;12.50;;
2618;SDS011;1319;52.346;13.096;2024-02-26T09:57:45;16.63;;;12.23;;
2618;SDS011;1319;52.346;13.096;2024-02-26T10:00:11;18.73;;;12.50;;
2618;SDS011;1319;52.346;13.096;2024-02-26T10:02:39;20.90;;;13.17;;
2618;SDS011;1319;52.346;13.096;2024-02-26T10:05:05;20.13;;;12.90;;
2618;SDS011;1319;52.346;13.096;2024-02-26T10:07:32;18.57;;;11.73;;
2618;SDS011;1319;52.346;13.096;2024-02-26T10:09:57;23.03;;;12.63;;
2618;SDS011;1319;52.346;13.096;2024-02-26T10:12:23;19.80;;;12.03;;
2618;SDS011;1319;52.346;13.096;2024-02-26T10:14:50;16.27;;;11.53;;
2618;SDS011;1319;52.346;13.096;2024-02-26T10:17:16;17.80;;;11.57;;
2618;SDS011;1319;52.346;13.096;2024-02-26T10:19:41;16.40;;;11.57;;
2618;SDS011;1319;52.346;13.096;2024-02-26T10:22:06;16.10;;;10.63;;
2618;SDS011;1319;52.346;13.096;2024-02-26T10:24:32;16.23;;;10.83;;
2618;SDS011;1319;52.346;13.096;2024-02-26T10:26:57;15.80;;;10.70;;
2618;SDS011;1319;52.346;13.096;2024-02-26T10:29:25;16.90;;;11.07;;
2618;SDS011;1319;52.346;13.096;2024-02-26T10:31:51;17.00;;;10.33;;
2618;SDS011;1319;52.346;13.096;2024-02-26T10:34:17;14.40;;;10.30;;
2618;SDS011;1319;52.346;13.096;2024-02-26T10:36:42;16.33;;;10.53;;
2618;SDS011;1319;52.346;13.096;2024-02-26T10:39:08;17.13;;;10.37;;
2618;SDS011;1319;52.346;13.096;2024-02-26T10:41:34;16.33;;;10.40;;
2618;SDS011;1319;52.346;13.096;2024-02-26T10:43:59;19.00;;;10.30;;
2618;SDS011;1319;52.346;13.096;2024-02-26T10:46:25;14.90;;;8.93;;
2618;SDS011;1319;52.346;13.096;2024-02-26T10:48:51;13.30;;;9.33;;
2618;SDS011;1319;52.346;13.096;2024-02-26T10:51:16;12.30;;;9.00;;
2618;SDS011;1319;52.346;13.096;2024-02-26T10:53:43;13.23;;;9.07;;
2618;SDS011;1319;52.346;13.096;2024-02-26T10:56:09;11.90;;;8.67;;
2618;SDS011;1319;52.346;13.096;2024-02-26T10:58:35;14.17;;;8.50;;
2618;SDS011;1319;52.346;13.096;2024-02-26T11:01:00;12.90;;;8.53;;
2618;SDS011;1319;52.346;13.096;2024-02-26T11:03:26;11.90;;;8.03;;
2618;SDS011;1319;52.346;13.096;2024-02-26T11:05:52;16.20;;;8.17;;
2618;SDS011;1319;52.346;13.096;2024-02-26T11:08:18;12.87;;;7.80;;
2618;SDS011;1319;52.346;13.096;2024-02-26T11:10:44;12.07;;;7.50;;
2618;SDS011;1319;52.346;13.096;2024-02-26T11:13:12;10.03;;;7.53;;
2618;SDS011;1319;52.346;13.096;2024-02-26T11:15:39;12.03;;;7.93;;
2618;SDS011;1319;52.346;13.096;2024-02-26T11:18:04;10.57;;;7.00;;
2618;SDS011;1319;52.346;13.096;2024-02-26T11:20:30;10.97;;;7.40;;
2618;SDS011;1319;52.346;13.096;2024-02-26T11:22:57;11.53;;;7.37;;
2618;SDS011;1319;52.346;13.096;2024-02-26T11:25:22;11.00;;;7.83;;
2618;SDS011;1319;52.346;13.096;2024-02-26T11:27:50;12.30;;;7.47;;
2618;SDS011;1319;52.346;13.096;2024-02-26T11:30:16;9.37;;;7.37;;
2618;SDS011;1319;52.346;13.096;2024-02-26T11:32:45;11.50;;;7.70;;
2618;SDS011;1319;52.346;13.096;2024-02-26T11:35:11;10.30;;;6.67;;
2618;SDS011;1319;52.346;13.096;2024-02-26T11:37:40;10.37;;;6.90;;
2618;SDS011;1319;52.346;13.096;2024-02-26T11:40:08;12.83;;;6.70;;
2618;SDS011;1319;52.346;13.096;2024-02-26T11:42:35;9.57;;;6.37;;
2618;SDS011;1319;52.346;13.096;2024-02-26T11:45:36;7.10;;;6.13;;
2618;SDS011;1319;52.346;13.096;2024-02-26T11:47:56;9.10;;;6.73;;
2618;SDS011;1319;52.346;13.096;2024-02-26T11:50:34;9.70;;;6.70;;
2618;SDS011;1319;52.346;13.096;2024-02-26T11:53:19;9.47;;;6.63;;
2618;SDS011;1319;52.346;13.096;2024-02-26T11:55:45;9.33;;;6.23;;
2618;SDS011;1319;52.346;13.096;2024-02-26T11:58:10;9.80;;;5.93;;
2618;SDS011;1319;52.346;13.096;2024-02-26T12:00:35;8.90;;;6.13;;
2618;SDS011;1319;52.346;13.096;2024-02-26T12:03:00;7.73;;;5.50;;
2618;SDS011;1319;52.346;13.096;2024-02-26T12:05:30;7.90;;;5.43;;
2618;SDS011;1319;52.346;13.096;2024-02-26T12:08:00;7.93;;;5.73;;
2618;SDS011;1319;52.346;13.096;2024-02-26T12:10:27;9.40;;;5.90;;
2618;SDS011;1319;52.346;13.096;2024-02-26T12:12:55;7.47;;;5.33;;
2618;SDS011;1319;52.346;13.096;2024-02-26T12:15:23;8.63;;;6.00;;
2618;SDS011;1319;52.346;13.096;2024-02-26T12:17:48;9.63;;;5.93;;
2618;SDS011;1319;52.346;13.096;2024-02-26T12:20:14;7.63;;;5.77;;
2618;SDS011;1319;52.346;13.096;2024-02-26T12:22:41;8.18;;;5.47;;
2618;SDS011;1319;52.346;13.096;2024-02-26T12:25:09;6.47;;;5.32;;
2618;SDS011;1319;52.346;13.096;2024-02-26T12:27:35;5.65;;;4.82;;
2618;SDS011;1319;52.346;13.096;2024-02-26T12:30:04;10.20;;;5.70;;
2618;SDS011;1319;52.346;13.096;2024-02-26T12:32:31;7.28;;;4.95;;
2618;SDS011;1319;52.346;13.096;2024-02-26T12:34:56;7.03;;;5.40;;
2618;SDS011;1319;52.346;13.096;2024-02-26T12:37:21;13.95;;;5.75;;
2618;SDS011;1319;52.346;13.096;2024-02-26T12:39:47;4.93;;;4.40;;
2618;SDS011;1319;52.346;13.096;2024-02-26T12:42:12;6.03;;;5.10;;
2618;SDS011;1319;52.346;13.096;2024-02-26T12:44:39;5.95;;;5.13;;
2618;SDS011;1319;52.346;13.096;2024-02-26T12:47:04;7.85;;;5.32;;
2618;SDS011;1319;52.346;13.096;2024-02-26T12:49:29;17.92;;;5.13;;
2618;SDS011;1319;52.346;13.096;2024-02-26T12:51:55;7.28;;;4.80;;
2618;SDS011;1319;52.346;13.096;2024-02-26T12:54:26;5.32;;;4.43;;
2618;SDS011;1319;52.346;13.096;2024-02-26T12:56:52;6.50;;;4.57;;
2618;SDS011;1319;52.346;13.096;2024-02-26T12:59:17;8.40;;;5.78;;
2618;SDS011;1319;52.346;13.096;2024-02-26T13:01:42;8.23;;;6.47;;
2618;SDS011;1319;52.346;13.096;2024-02-26T13:04:07;8.80;;;5.93;;
2618;SDS011;1319;52.346;13.096;2024-02-26T13:06:33;9.90;;;6.23;;
2618;SDS011;1319;52.346;13.096;2024-02-26T13:08:59;8.50;;;5.97;;
2618;SDS011;1319;52.346;13.096;2024-02-26T13:11:25;7.17;;;5.60;;
2618;SDS011;1319;52.346;13.096;2024-02-26T13:13:50;7.13;;;5.80;;
2618;SDS011;1319;52.346;13.096;2024-02-26T13:16:16;7.33;;;6.30;;
2618;SDS011;1319;52.346;13.096;2024-02-26T13:18:41;9.40;;;5.80;;
2618;SDS011;1319;52.346;13.096;2024-02-26T13:21:12;11.80;;;5.60;;
2618;SDS011;1319;52.346;13.096;2024-02-26T13:23:38;7.00;;;5.43;;
2618;SDS011;1319;52.346;13.096;2024-02-26T13:26:04;7.07;;;4.97;;
2618;SDS011;1319;52.346;13.096;2024-02-26T13:28:29;6.93;;;4.90;;
2618;SDS011;1319;52.346;13.096;2024-02-26T13:30:55;6.80;;;5.10;;
2618;SDS011;1319;52.346;13.096;2024-02-26T13:33:25;7.20;;;4.83;;
2618;SDS011;1319;52.346;13.096;2024-02-26T13:35:50;7.27;;;4.90;;
2618;SDS011;1319;52.346;13.096;2024-02-26T13:38:16;7.57;;;4.77;;
2618;SDS011;1319;52.346;13.096;2024-02-26T13:40:42;8.10;;;5.50;;
2618;SDS011;1319;52.346;13.096;2024-02-26T13:43:07;11.27;;;5.63;;
2618;SDS011;1319;52.346;13.096;2024-02-26T13:45:35;6.57;;;5.00;;
2618;SDS011;1319;52.346;13.096;2024-02-26T13:48:01;8.03;;;5.60;;
2618;SDS011;1319;52.346;13.096;2024-02-26T13:50:27;8.93;;;5.37;;
2618;SDS011;1319;52.346;13.096;2024-02-26T13:52:52;9.07;;;5.53;;
2618;SDS011;1319;52.346;13.096;2024-02-26T13:55:20;7.87;;;5.50;;
2618;SDS011;1319;52.346;13.096;2024-02-26T13:57:47;9.97;;;7.00;;
2618;SDS011;1319;52.346;13.096;2024-02-26T14:00:13;11.57;;;6.53;;
2618;SDS011;1319;52.346;13.096;2024-02-26T14:02:39;10.43;;;7.23;;
2618;SDS011;1319;52.346;13.096;2024-02-26T14:05:04;12.07;;;7.67;;
2618;SDS011;1319;52.346;13.096;2024-02-26T14:07:30;15.47;;;8.23;;
2618;SDS011;1319;52.346;13.096;2024-02-26T14:09:57;12.37;;;7.57;;
2618;SDS011;1319;52.346;13.096;2024-02-26T14:12:22;12.23;;;7.67;;
2618;SDS011;1319;52.346;13.096;2024-02-26T14:14:48;11.77;;;7.23;;
2618;SDS011;1319;52.346;13.096;2024-02-26T14:17:13;10.87;;;6.73;;
2618;SDS011;1319;52.346;13.096;2024-02-26T14:19:39;11.40;;;6.47;;
2618;SDS011;1319;52.346;13.096;2024-02-26T14:22:08;10.87;;;6.30;;
2618;SDS011;1319;52.346;13.096;2024-02-26T14:24:33;12.97;;;6.57;;
2618;SDS011;1319;52.346;13.096;2024-02-26T14:26:59;10.00;;;5.33;;
2618;SDS011;1319;52.346;13.096;2024-02-26T14:29:24;7.47;;;5.23;;
2618;SDS011;1319;52.346;13.096;2024-02-26T14:31:49;8.17;;;5.63;;
2618;SDS011;1319;52.346;13.096;2024-02-26T14:34:14;5.40;;;4.23;;
2618;SDS011;1319;52.346;13.096;2024-02-26T14:36:42;7.57;;;4.53;;